Time;durP1;ratioP1;P1;durP2;ratioP2;P2;SDS_P1;SDS_P2;PMS_P1;PMS_P2;Temp;Humidity;BMP_temperature;BMP_pressure;BME280_temperature;BME280_humidity;BME280_pressure;Samples;Min_cycle;Max_cycle;Signal;HPM_P1;HPM_P2
2022/07/22 00:01:10;;;;;;;14.60;3.67;;;;;;;-145.18;100.00;46660.41;5047587;28;20102;-72
2022/07/22 00:03:35;;;;;;;18.87;3.70;;;;;;;-145.18;100.00;46660.41;5049228;28;20060;-71
2022/07/22 00:06:00;;;;;;;15.90;4.60;;;;;;;-145.18;100.00;46660.41;5048749;28;20064;-71
2022/07/22 00:08:26;;;;;;;22.43;4.00;;;;;;;-145.18;100.00;46660.41;5048820;28;20029;-71
2022/07/22 00:10:51;;;;;;;15.03;3.17;;;;;;;-145.18;100.00;46660.41;5050074;28;20044;-71
2022/07/22 00:13:16;;;;;;;12.37;3.00;;;;;;;-145.18;100.00;46660.41;5052890;28;20075;-71
2022/07/22 00:15:42;;;;;;;13.00;3.37;;;;;;;-145.18;100.00;46660.41;5051977;28;20036;-72
2022/07/22 00:18:07;;;;;;;10.27;3.23;;;;;;;-145.18;100.00;46633.06;5052758;28;20108;-72
2022/07/22 00:20:33;;;;;;;15.70;3.73;;;;;;;-145.18;100.00;46660.41;5052667;28;20068;-72
2022/07/22 00:22:58;;;;;;;15.97;3.97;;;;;;;-145.18;100.00;46660.41;5052569;28;20033;-72
2022/07/22 00:25:24;;;;;;;13.93;3.57;;;;;;;-145.18;100.00;46660.41;5052883;28;20029;-72
2022/07/22 00:27:49;;;;;;;12.47;3.80;;;;;;;-145.18;100.00;46660.41;5052475;28;20509;-72
2022/07/22 00:30:14;;;;;;;8.13;4.13;;;;;;;-145.18;100.00;46660.41;5053101;28;20039;-72
2022/07/22 00:32:40;;;;;;;12.83;3.60;;;;;;;-145.18;100.00;46660.41;5052128;28;20044;-72
2022/07/22 00:35:06;;;;;;;9.67;4.03;;;;;;;-145.18;100.00;46660.41;5052684;28;20029;-72
2022/07/22 00:37:31;;;;;;;13.23;4.13;;;;;;;-145.18;100.00;46660.41;5051901;28;20037;-72
2022/07/22 00:39:57;;;;;;;13.60;3.97;;;;;;;-145.18;100.00;46660.41;5052944;28;20045;-72
2022/07/22 00:42:22;;;;;;;13.20;4.03;;;;;;;-145.18;100.00;46660.41;5052027;28;20036;-72
2022/07/22 00:44:47;;;;;;;15.17;4.40;;;;;;;-145.18;100.00;46660.41;5052497;28;20044;-71
2022/07/22 00:47:13;;;;;;;15.80;4.50;;;;;;;-145.18;100.00;46660.41;5052196;28;20401;-72
2022/07/22 00:49:39;;;;;;;8.37;3.20;;;;;;;-145.18;100.00;46660.41;5052176;28;20126;-72
2022/07/22 00:52:05;;;;;;;14.00;4.57;;;;;;;-145.18;100.00;46660.41;5052175;28;20029;-72
2022/07/22 00:54:31;;;;;;;12.77;4.17;;;;;;;-145.18;100.00;46660.41;5052396;28;20468;-72
2022/07/22 00:56:56;;;;;;;18.27;4.27;;;;;;;-145.18;100.00;46660.41;5052009;28;20107;-72
2022/07/22 00:59:22;;;;;;;12.70;4.50;;;;;;;-145.18;100.00;46660.41;5052350;28;20039;-72
2022/07/22 01:01:47;;;;;;;17.83;4.20;;;;;;;-145.18;100.00;46660.41;5052030;28;20546;-72
2022/07/22 01:04:14;;;;;;;10.73;3.83;;;;;;;-145.18;100.00;46660.41;5052194;28;20135;-71
2022/07/22 01:06:44;;;;;;;12.07;3.80;;;;;;;-145.18;100.00;46660.41;5049979;28;20490;-72
2022/07/22 01:09:10;;;;;;;12.53;4.00;;;;;;;-145.18;100.00;46660.41;5052373;28;20032;-72
2022/07/22 01:11:35;;;;;;;16.77;4.20;;;;;;;-145.18;100.00;46660.41;5051936;28;20033;-72
2022/07/22 01:14:01;;;;;;;14.47;4.60;;;;;;;-145.18;100.00;46660.41;5052301;28;20103;-72
2022/07/22 01:16:26;;;;;;;12.97;4.27;;;;;;;-145.18;100.00;46660.41;5050961;28;20033;-71
2022/07/22 01:18:51;;;;;;;13.27;4.20;;;;;;;-145.18;100.00;46660.41;5035739;28;20379;-72
2022/07/22 01:21:17;;;;;;;10.87;3.83;;;;;;;-145.18;100.00;46660.41;5031943;28;20064;-72
2022/07/22 01:23:43;;;;;;;9.60;3.23;;;;;;;-145.18;100.00;46660.41;5031077;28;20475;-72
2022/07/22 01:26:08;;;;;;;10.60;3.10;;;;;;;-145.18;100.00;46635.00;5031706;28;20533;-72
2022/07/22 01:28:34;;;;;;;10.37;3.07;;;;;;;-145.18;100.00;46660.41;5031449;28;20026;-72
2022/07/22 01:31:00;;;;;;;11.37;3.30;;;;;;;-145.18;100.00;46633.06;5031902;28;20044;-72
2022/07/22 01:33:25;;;;;;;13.20;2.83;;;;;;;-145.18;100.00;46636.94;5031113;28;20746;-72
2022/07/22 01:35:51;;;;;;;11.87;3.33;;;;;;;-145.18;100.00;46640.88;5047090;28;20079;-72
2022/07/22 01:38:17;;;;;;;15.20;3.53;;;;;;;-145.18;100.00;46636.94;5031444;28;20052;-72
2022/07/22 01:40:44;;;;;;;14.17;3.87;;;;;;;-145.18;100.00;46640.88;5031309;28;20478;-72
2022/07/22 01:43:10;;;;;;;10.67;3.47;;;;;;;-145.18;100.00;46635.00;5031374;28;20076;-72
2022/07/22 01:45:36;;;;;;;7.70;3.10;;;;;;;-145.18;100.00;46638.91;5031704;28;20091;-72
2022/07/22 01:48:02;;;;;;;10.07;3.13;;;;;;;-145.18;100.00;46635.00;5030981;28;20033;-72
2022/07/22 01:50:28;;;;;;;8.00;4.03;;;;;;;-145.18;100.00;46638.91;5031103;28;20494;-72
2022/07/22 01:52:53;;;;;;;13.93;4.90;;;;;;;-145.18;100.00;46638.91;5031041;28;20086;-72
2022/07/22 01:55:19;;;;;;;16.07;3.43;;;;;;;-145.18;100.00;46638.91;5031278;28;20754;-72
2022/07/22 01:57:44;;;;;;;12.70;3.50;;;;;;;-145.18;100.00;46644.78;5031044;28;20136;-72
2022/07/22 02:02:54;;;;;;;17.07;3.47;;;;;;;-145.18;100.00;46642.81;5411145;22;20091;-73
2022/07/22 02:05:19;;;;;;;13.97;3.30;;;;;;;-145.18;100.00;46642.81;5040562;28;20420;-73
2022/07/22 02:07:45;;;;;;;19.87;3.60;;;;;;;-145.18;100.00;46642.81;5047120;28;20108;-73
2022/07/22 02:10:10;;;;;;;13.23;3.50;;;;;;;-145.18;100.00;46640.88;5050452;28;20040;-73
2022/07/22 02:12:36;;;;;;;9.37;3.47;;;;;;;-145.18;100.00;46636.94;5050810;28;20037;-73
2022/07/22 02:15:01;;;;;;;11.17;3.43;;;;;;;-145.18;100.00;46642.81;5050651;28;20065;-73
2022/07/22 02:17:26;;;;;;;9.67;4.00;;;;;;;-145.18;100.00;46638.91;5050845;28;20044;-73
2022/07/22 02:19:52;;;;;;;12.00;3.20;;;;;;;-145.18;100.00;46638.91;5050841;28;20041;-73
2022/07/22 02:22:17;;;;;;;12.17;3.60;;;;;;;-145.18;100.00;46638.91;5050357;28;20483;-73
2022/07/22 02:24:43;;;;;;;10.67;3.87;;;;;;;-145.18;100.00;46640.88;5050684;28;20041;-73
2022/07/22 02:27:08;;;;;;;11.43;3.60;;;;;;;-145.18;100.00;46640.88;5050188;28;20045;-73
2022/07/22 02:29:33;;;;;;;15.07;3.17;;;;;;;-145.18;100.00;46636.94;5049660;28;20069;-73
2022/07/22 02:31:59;;;;;;;14.47;3.63;;;;;;;-145.18;100.00;46638.91;5050344;28;20410;-73
2022/07/22 02:34:25;;;;;;;11.30;3.47;;;;;;;-145.18;100.00;46636.94;5050287;28;20048;-73
2022/07/22 02:36:51;;;;;;;13.60;3.63;;;;;;;-145.18;100.00;46636.94;5050536;28;20064;-73
2022/07/22 02:39:16;;;;;;;11.77;3.47;;;;;;;-145.18;100.00;46635.00;5050057;28;20037;-73
2022/07/22 02:41:41;;;;;;;15.60;3.43;;;;;;;-145.18;100.00;46636.94;5050640;28;20477;-74
2022/07/22 02:44:07;;;;;;;8.27;3.43;;;;;;;-145.18;100.00;46660.41;5050153;28;20370;-73
2022/07/22 02:46:32;;;;;;;13.53;3.80;;;;;;;-145.18;100.00;46636.94;5050422;28;20033;-73
2022/07/22 02:48:58;;;;;;;13.27;3.70;;;;;;;-145.18;100.00;46660.41;5050163;28;20028;-73
2022/07/22 02:51:23;;;;;;;12.77;3.30;;;;;;;-145.18;100.00;46635.00;5050252;28;20481;-73
2022/07/22 02:53:49;;;;;;;6.90;3.53;;;;;;;-145.18;100.00;46633.06;5050198;28;20029;-73
2022/07/22 02:56:14;;;;;;;13.27;3.60;;;;;;;-145.18;100.00;46660.41;5050147;28;20111;-73
2022/07/22 02:58:40;;;;;;;12.57;4.00;;;;;;;-145.18;100.00;46660.41;5050036;28;20033;-73
2022/07/22 03:01:06;;;;;;;11.60;4.17;;;;;;;-145.18;100.00;46635.00;5050201;28;20029;-73
2022/07/22 03:03:31;;;;;;;14.47;4.10;;;;;;;-145.18;100.00;46660.41;5049911;28;20060;-73
2022/07/22 03:05:57;;;;;;;10.37;3.80;;;;;;;-145.18;100.00;46660.41;5050486;28;20458;-73
2022/07/22 03:08:22;;;;;;;14.10;3.13;;;;;;;-145.18;100.00;46660.41;5049625;28;20037;-72
2022/07/22 03:10:48;;;;;;;12.60;3.90;;;;;;;-145.18;100.00;46660.41;5050305;28;20078;-73
2022/07/22 03:13:13;;;;;;;9.03;3.63;;;;;;;-145.18;100.00;46660.41;5049624;28;20484;-73
2022/07/22 03:15:39;;;;;;;16.87;4.17;;;;;;;-145.18;100.00;46660.41;5050335;28;20056;-73
2022/07/22 03:18:04;;;;;;;11.13;4.30;;;;;;;-145.18;100.00;46660.41;5049552;28;20037;-73
2022/07/22 03:20:29;;;;;;;14.53;4.17;;;;;;;-145.18;100.00;46660.41;5050065;28;20033;-73
2022/07/22 03:22:55;;;;;;;11.63;4.43;;;;;;;-145.18;100.00;46660.41;5049498;28;20179;-73
2022/07/22 03:25:20;;;;;;;11.30;4.20;;;;;;;-145.18;100.00;46660.41;5050005;28;20041;-73
2022/07/22 03:27:45;;;;;;;18.20;4.23;;;;;;;-145.18;100.00;46660.41;5049541;28;20064;-73
2022/07/22 03:30:12;;;;;;;10.87;3.83;;;;;;;-145.18;100.00;46660.41;5050100;28;20133;-73
2022/07/22 03:32:38;;;;;;;9.97;4.00;;;;;;;-145.18;100.00;46636.94;5049461;28;20033;-73
2022/07/22 03:35:04;;;;;;;8.50;3.50;;;;;;;-145.18;100.00;46660.41;5048688;28;20028;-72
2022/07/22 03:37:29;;;;;;;11.47;4.50;;;;;;;-145.18;100.00;46660.41;5049468;28;20401;-73
2022/07/22 03:39:54;;;;;;;11.53;3.70;;;;;;;-145.18;100.00;46660.41;5049828;28;20044;-73
2022/07/22 03:42:20;;;;;;;7.77;3.43;;;;;;;-145.18;100.00;46660.41;5045908;28;20044;-73
2022/07/22 03:44:46;;;;;;;9.70;4.03;;;;;;;-145.18;100.00;46660.41;5049667;28;20044;-73
2022/07/22 03:47:12;;;;;;;14.40;4.00;;;;;;;-145.18;100.00;46660.41;5051881;28;20477;-72
2022/07/22 03:49:37;;;;;;;18.33;3.53;;;;;;;-145.18;100.00;46660.41;5051835;28;20056;-73
2022/07/22 03:52:03;;;;;;;11.13;4.30;;;;;;;-145.18;100.00;46635.00;5053483;28;20078;-73
2022/07/22 03:54:28;;;;;;;12.87;3.33;;;;;;;-145.18;100.00;46636.94;5052541;28;20036;-73
2022/07/22 03:56:53;;;;;;;12.33;3.97;;;;;;;-145.18;100.00;46636.94;5052839;28;20037;-73
2022/07/22 03:59:19;;;;;;;9.17;3.10;;;;;;;-145.18;100.00;46636.94;5052060;28;20120;-73
2022/07/22 04:01:44;;;;;;;10.40;3.63;;;;;;;-145.18;100.00;46636.94;5046312;28;20045;-73
2022/07/22 04:04:10;;;;;;;12.40;3.60;;;;;;;-145.18;100.00;46638.91;5052728;28;20057;-73
2022/07/22 04:06:35;;;;;;;12.23;4.07;;;;;;;-145.18;100.00;46636.94;5053280;28;20131;-73
2022/07/22 04:09:00;;;;;;;19.77;3.00;;;;;;;-145.18;100.00;46638.91;5052641;28;20041;-72
2022/07/22 04:11:26;;;;;;;9.20;3.27;;;;;;;-145.18;100.00;46636.94;5052674;28;20032;-73
2022/07/22 04:13:51;;;;;;;10.10;2.60;;;;;;;-145.18;100.00;46636.94;5052911;28;20120;-73
2022/07/22 04:16:17;;;;;;;13.80;3.03;;;;;;;-145.18;100.00;46642.81;5051599;28;20503;-73
2022/07/22 04:18:42;;;;;;;12.97;2.87;;;;;;;-145.18;100.00;46642.81;5052092;28;20128;-73
2022/07/22 04:21:08;;;;;;;8.07;2.77;;;;;;;-145.18;100.00;46646.72;5052713;28;20043;-73
2022/07/22 04:23:33;;;;;;;17.70;3.20;;;;;;;-145.18;100.00;46638.91;5052311;28;20516;-73
2022/07/22 04:25:58;;;;;;;10.37;3.17;;;;;;;-145.18;100.00;46640.88;5050839;28;20444;-74
2022/07/22 04:28:24;;;;;;;11.83;3.47;;;;;;;-145.18;100.00;46640.88;5046833;28;20044;-73
2022/07/22 04:30:49;;;;;;;11.30;3.40;;;;;;;-145.18;100.00;46642.81;5046965;28;20037;-74
2022/07/22 04:33:14;;;;;;;12.10;3.70;;;;;;;-145.18;100.00;46642.81;5051755;28;20036;-73
2022/07/22 04:35:40;;;;;;;8.70;3.00;;;;;;;-145.18;100.00;46638.91;5052582;28;20040;-73
2022/07/22 04:38:05;;;;;;;8.73;3.10;;;;;;;-145.18;100.00;46633.06;5049375;28;20099;-73
2022/07/22 04:40:31;;;;;;;11.70;3.17;;;;;;;-145.18;100.00;46636.94;5044968;28;21277;-73
2022/07/22 04:42:56;;;;;;;11.90;2.67;;;;;;;-145.18;100.00;46640.88;5049924;28;20455;-73
2022/07/22 04:45:21;;;;;;;14.60;3.37;;;;;;;-145.18;100.00;46640.88;5052415;28;20025;-73
2022/07/22 04:47:47;;;;;;;10.23;3.13;;;;;;;-145.18;100.00;46640.88;5052334;28;20029;-73
2022/07/22 04:50:12;;;;;;;11.63;3.60;;;;;;;-145.18;100.00;46636.94;5052715;28;20453;-73
2022/07/22 04:52:38;;;;;;;10.63;3.73;;;;;;;-145.18;100.00;46636.94;5051764;28;20075;-73
2022/07/22 04:55:04;;;;;;;11.07;3.63;;;;;;;-145.18;100.00;46635.00;5052763;28;20104;-73
2022/07/22 04:57:29;;;;;;;9.80;3.23;;;;;;;-145.18;100.00;46638.91;5050387;28;20032;-73
2022/07/22 04:59:54;;;;;;;8.13;3.00;;;;;;;-145.18;100.00;46638.91;5051543;28;20039;-73
2022/07/22 05:02:20;;;;;;;13.83;3.73;;;;;;;-145.18;100.00;46633.06;5050902;28;20049;-73
2022/07/22 05:04:45;;;;;;;12.87;3.20;;;;;;;-145.18;100.00;46640.88;5051977;28;20037;-73
2022/07/22 05:07:11;;;;;;;6.20;3.13;;;;;;;-145.18;100.00;46633.06;5051067;28;20052;-73
2022/07/22 05:09:36;;;;;;;9.67;3.37;;;;;;;-145.18;100.00;46636.94;5052050;28;20036;-73
2022/07/22 05:12:03;;;;;;;7.50;3.00;;;;;;;-145.18;100.00;46640.88;5050882;28;20037;-73
2022/07/22 05:14:28;;;;;;;10.63;3.07;;;;;;;-145.18;100.00;46642.81;5048375;28;20078;-73
2022/07/22 05:16:53;;;;;;;9.80;3.00;;;;;;;-145.18;100.00;46636.94;5050538;28;20451;-73
2022/07/22 05:19:19;;;;;;;9.73;3.13;;;;;;;-145.18;100.00;46638.91;5050504;28;20033;-73
2022/07/22 05:21:44;;;;;;;8.07;2.53;;;;;;;-145.18;100.00;46644.78;5052246;28;20036;-73
2022/07/22 05:24:10;;;;;;;14.50;2.87;;;;;;;-145.18;100.00;46642.81;5050599;28;20029;-73
2022/07/22 05:26:35;;;;;;;9.23;2.50;;;;;;;-145.18;100.00;46648.69;5051853;28;20098;-73
2022/07/22 05:29:01;;;;;;;7.67;2.17;;;;;;;-145.18;100.00;46644.78;5051484;28;20115;-73
2022/07/22 05:31:26;;;;;;;11.87;3.13;;;;;;;-145.18;100.00;46652.59;5052119;28;20501;-73
2022/07/22 05:33:51;;;;;;;13.37;3.03;;;;;;;-145.18;100.00;46648.69;5051442;28;20033;-73
2022/07/22 05:36:17;;;;;;;9.37;2.50;;;;;;;-145.18;100.00;46648.69;5045413;28;20045;-73
2022/07/22 05:38:43;;;;;;;8.70;2.73;;;;;;;-145.18;100.00;46650.63;5050814;28;20040;-73
2022/07/22 05:41:08;;;;;;;10.77;3.00;;;;;;;-145.18;100.00;46648.69;5033624;28;20124;-73
2022/07/22 05:43:34;;;;;;;9.63;2.70;;;;;;;-145.18;100.00;46652.59;5050912;28;20033;-73
2022/07/22 05:45:59;;;;;;;7.80;2.83;;;;;;;-145.18;100.00;46650.63;5051467;28;20091;-73
2022/07/22 05:48:25;;;;;;;8.20;2.20;;;;;;;-145.18;100.00;46652.59;5049091;28;20061;-73
2022/07/22 05:50:50;;;;;;;8.10;2.23;;;;;;;-145.18;100.00;46650.63;5051470;28;20040;-73
2022/07/22 05:53:15;;;;;;;10.77;2.77;;;;;;;-145.18;100.00;46650.63;5040996;28;20372;-73
2022/07/22 05:55:41;;;;;;;12.83;2.57;;;;;;;-145.18;100.00;46652.59;5049881;28;20045;-73
2022/07/22 05:58:06;;;;;;;7.27;1.70;;;;;;;-145.18;100.00;46654.53;5050689;28;20037;-73
2022/07/22 06:00:32;;;;;;;6.77;2.20;;;;;;;-145.18;100.00;46658.44;5050920;28;20091;-73
2022/07/22 06:02:57;;;;;;;8.13;2.93;;;;;;;-145.18;100.00;46652.59;5050108;28;20058;-74
2022/07/22 06:05:23;;;;;;;9.77;2.37;;;;;;;-145.18;100.00;46654.53;5050828;28;20044;-74
2022/07/22 06:07:48;;;;;;;11.80;2.10;;;;;;;-145.18;100.00;46660.41;5050940;28;20021;-74
2022/07/22 06:10:14;;;;;;;7.90;2.20;;;;;;;-145.18;100.00;46660.41;5050764;28;20029;-74
2022/07/22 06:12:39;;;;;;;8.30;2.30;;;;;;;-145.18;100.00;46664.31;5049693;28;20021;-73
2022/07/22 06:15:05;;;;;;;7.13;2.10;;;;;;;-145.18;100.00;46662.34;5050279;28;20485;-74
2022/07/22 06:17:31;;;;;;;10.33;2.37;;;;;;;-145.18;100.00;46660.41;5050320;28;20041;-74
2022/07/22 06:19:56;;;;;;;10.53;2.50;;;;;;;-145.18;100.00;46664.31;5050390;28;20102;-73
2022/07/22 06:22:22;;;;;;;10.87;3.83;;;;;;;-145.18;100.00;46664.31;5050609;28;20037;-74
2022/07/22 06:24:47;;;;;;;11.53;3.03;;;;;;;-145.18;100.00;46662.34;5050480;28;20166;-73
2022/07/22 06:27:13;;;;;;;11.07;3.37;;;;;;;-145.18;100.00;46666.25;5050050;28;20040;-74
2022/07/22 06:29:38;;;;;;;13.57;2.70;;;;;;;-145.18;100.00;46660.41;5050396;28;20039;-74
2022/07/22 06:32:04;;;;;;;18.33;3.87;;;;;;;-145.18;100.00;46666.25;5050047;28;20082;-74
2022/07/22 06:34:29;;;;;;;8.40;2.60;;;;;;;-145.18;100.00;46664.31;5049473;28;20039;-74
2022/07/22 06:36:55;;;;;;;13.30;3.43;;;;;;;-145.18;100.00;46660.41;5048725;28;20032;-73
2022/07/22 06:39:21;;;;;;;11.10;3.00;;;;;;;-145.18;100.00;46666.25;5049540;28;20426;-73
2022/07/22 06:41:46;;;;;;;11.87;3.07;;;;;;;-145.18;100.00;46658.44;5050819;28;20021;-74
2022/07/22 06:44:12;;;;;;;10.53;2.87;;;;;;;-145.18;100.00;46664.31;5043230;28;20041;-74
2022/07/22 06:46:37;;;;;;;13.13;3.30;;;;;;;-145.18;100.00;46668.22;5044933;28;20033;-74
2022/07/22 06:49:02;;;;;;;5.47;2.50;;;;;;;-145.18;100.00;46666.25;5050182;28;20521;-73
2022/07/22 06:51:28;;;;;;;5.83;2.63;;;;;;;-145.18;100.00;46670.16;5038645;28;20379;-74
2022/07/22 06:53:53;;;;;;;7.83;3.30;;;;;;;-145.18;100.00;46666.25;5030300;28;20452;-74
2022/07/22 06:56:18;;;;;;;11.10;2.97;;;;;;;-145.18;100.00;46670.16;5030197;28;20133;-74
2022/07/22 06:58:44;;;;;;;6.43;2.70;;;;;;;-145.18;100.00;46670.16;5029955;28;20037;-74
2022/07/22 07:01:09;;;;;;;9.60;3.17;;;;;;;-145.18;100.00;46674.06;5028752;28;20116;-74
2022/07/22 07:03:35;;;;;;;9.13;3.27;;;;;;;-145.18;100.00;46677.97;5029670;28;20072;-74
2022/07/22 07:06:00;;;;;;;5.13;2.77;;;;;;;-145.18;100.00;46679.94;5029685;28;20033;-74
2022/07/22 07:08:26;;;;;;;6.97;3.10;;;;;;;-145.18;100.00;46676.03;5029662;28;20034;-74
2022/07/22 07:10:51;;;;;;;8.97;3.20;;;;;;;-145.18;100.00;46677.97;5030311;28;20034;-74
2022/07/22 07:13:16;;;;;;;7.23;2.90;;;;;;;-145.18;100.00;46683.84;5029505;28;20025;-74
2022/07/22 07:15:42;;;;;;;5.93;2.47;;;;;;;-145.18;100.00;46683.84;5030536;28;20104;-74
2022/07/22 07:18:07;;;;;;;7.27;2.77;;;;;;;-145.18;100.00;46679.94;5028209;28;20049;-74
2022/07/22 07:20:33;;;;;;;5.70;1.97;;;;;;;-145.18;100.00;46674.06;5030384;28;20037;-74
2022/07/22 07:23:02;;;;;;;6.77;2.50;;;;;;;-145.18;100.00;46662.34;5033493;28;20113;-74
2022/07/22 07:25:28;;;;;;;5.30;1.60;;;;;;;-145.18;100.00;46551.00;5034062;28;20152;-74
2022/07/22 07:27:53;;;;;;;4.77;1.77;;;;;;;-145.18;100.00;46551.00;5034296;28;20033;-74
2022/07/22 07:30:18;;;;;;;5.30;2.67;;;;;;;-145.18;100.00;46551.00;5038384;28;20079;-74
2022/07/22 07:32:44;;;;;;;5.10;2.37;;;;;;;-145.18;100.00;46566.63;5053364;28;20082;-74
2022/07/22 07:35:10;;;;;;;8.10;2.90;;;;;;;-145.18;100.00;46566.63;5053310;28;20122;-75
2022/07/22 07:37:36;;;;;;;9.13;2.70;;;;;;;-145.18;100.00;46558.81;5054236;28;20032;-74
2022/07/22 07:40:01;;;;;;;4.97;2.23;;;;;;;-145.18;100.00;46566.63;5052198;28;20029;-74
2022/07/22 07:42:26;;;;;;;10.30;2.57;;;;;;;-145.18;100.00;46574.44;5053783;28;20041;-75
2022/07/22 07:44:52;;;;;;;6.47;2.40;;;;;;;-145.18;100.00;46568.59;5053501;28;20512;-75
2022/07/22 07:47:20;;;;;;;4.37;2.33;;;;;;;-145.18;100.00;46572.50;5053311;28;20183;-74
2022/07/22 07:49:46;;;;;;;5.07;2.10;;;;;;;-145.18;100.00;46570.53;5052722;28;20033;-74
2022/07/22 07:52:12;;;;;;;8.10;2.30;;;;;;;-145.18;100.00;46562.72;5053228;28;20052;-75
2022/07/22 07:54:39;;;;;;;6.63;2.60;;;;;;;-145.18;100.00;46578.34;5053265;28;20104;-75
2022/07/22 07:57:05;;;;;;;7.27;2.37;;;;;;;-145.18;100.00;46564.69;5052747;28;20040;-75
2022/07/22 07:59:31;;;;;;;6.67;2.53;;;;;;;-145.18;100.00;46562.72;5053171;28;20029;-75
2022/07/22 08:01:56;;;;;;;3.40;2.60;;;;;;;-145.18;100.00;46566.63;5053639;28;20033;-75
2022/07/22 08:04:21;;;;;;;6.70;2.90;;;;;;;-145.18;100.00;46584.22;5053001;28;20040;-76
2022/07/22 08:06:47;;;;;;;5.70;3.30;;;;;;;-145.18;100.00;46584.22;5053504;28;20079;-77
2022/07/22 08:09:12;;;;;;;7.13;2.80;;;;;;;-145.18;100.00;46576.41;5052512;28;20084;-73
2022/07/22 08:11:37;;;;;;;4.07;2.60;;;;;;;-145.18;100.00;46578.34;5053362;28;20103;-74
2022/07/22 08:14:03;;;;;;;7.00;3.37;;;;;;;-145.18;100.00;46582.25;5052975;28;20374;-76
2022/07/22 08:16:28;;;;;;;7.00;3.70;;;;;;;-145.18;100.00;46578.34;5053028;28;20496;-77
2022/07/22 08:18:54;;;;;;;7.43;3.60;;;;;;;-145.18;100.00;46578.34;5052843;28;20041;-76
2022/07/22 08:21:19;;;;;;;7.47;3.50;;;;;;;-145.18;100.00;46568.59;5052978;28;20037;-76
2022/07/22 08:23:44;;;;;;;7.40;3.70;;;;;;;-145.18;100.00;46584.22;5052614;28;20032;-78
2022/07/22 08:26:10;;;;;;;6.73;4.00;;;;;;;-145.18;100.00;46592.03;5052966;28;20033;-77
2022/07/22 08:28:35;;;;;;;4.93;3.50;;;;;;;-145.18;100.00;46570.53;5052550;28;20069;-76
2022/07/22 08:31:01;;;;;;;3.70;2.70;;;;;;;-145.18;100.00;46578.34;5052819;28;20504;-77
2022/07/22 08:33:26;;;;;;;6.83;3.60;;;;;;;-145.18;100.00;46574.44;5052245;28;20027;-76
2022/07/22 08:35:51;;;;;;;6.03;3.00;;;;;;;-145.18;100.00;46570.53;5053013;28;20106;-77
2022/07/22 08:38:17;;;;;;;9.20;3.90;;;;;;;-145.18;100.00;46558.81;5052385;28;20370;-77
2022/07/22 08:40:43;;;;;;;4.10;2.40;;;;;;;-145.18;100.00;46566.63;5038667;28;20643;-77
2022/07/22 08:43:08;;;;;;;4.33;3.17;;;;;;;-145.18;100.00;46566.63;5032620;28;20033;-77
2022/07/22 08:45:34;;;;;;;5.50;3.53;;;;;;;-145.18;100.00;46572.50;5038323;28;20547;-77
2022/07/22 08:48:02;;;;;;;7.67;3.80;;;;;;;-145.18;100.00;46570.53;5052614;28;20044;-77
2022/07/22 08:50:28;;;;;;;6.03;3.50;;;;;;;-145.18;100.00;46586.16;5052112;28;20168;-77
2022/07/22 08:52:53;;;;;;;9.40;3.80;;;;;;;-145.18;100.00;46564.69;5051505;28;20552;-77
2022/07/22 08:55:19;;;;;;;6.00;3.90;;;;;;;-145.18;100.00;46564.69;5051804;28;20078;-77
2022/07/22 08:57:46;;;;;;;6.53;4.07;;;;;;;-145.18;100.00;46576.41;5051118;28;20039;-77
2022/07/22 09:00:17;;;;;;;5.97;3.60;;;;;;;-145.18;100.00;46576.41;5052076;28;20182;-77
2022/07/22 09:02:43;;;;;;;9.10;4.20;;;;;;;-145.18;100.00;46566.63;5052125;28;20037;-77
2022/07/22 09:05:14;;;;;;;9.77;4.20;;;;;;;-145.18;100.00;46562.72;5051598;28;20021;-77
2022/07/22 09:07:42;;;;;;;7.20;4.10;;;;;;;-145.18;100.00;46590.06;5052174;28;20024;-77
2022/07/22 09:10:10;;;;;;;7.47;3.70;;;;;;;-145.18;100.00;46576.41;5052318;28;20029;-77
2022/07/22 09:12:51;;;;;;;9.80;4.13;;;;;;;-145.18;100.00;46576.41;5052067;28;20025;-77
2022/07/22 09:15:28;;;;;;;9.57;3.67;;;;;;;-145.18;100.00;46578.34;5051371;28;20029;-77
2022/07/22 09:17:54;;;;;;;11.20;3.90;;;;;;;-145.18;100.00;46584.22;5051711;28;20029;-78
2022/07/22 09:20:20;;;;;;;5.50;4.10;;;;;;;-145.18;100.00;46574.44;5051134;28;20516;-78
2022/07/22 09:22:48;;;;;;;5.43;4.43;;;;;;;-145.18;100.00;46576.41;5051916;28;20119;-77
2022/07/22 09:25:40;;;;;;;8.13;4.80;;;;;;;-145.18;100.00;46568.59;5051197;28;20397;-78
2022/07/22 09:28:05;;;;;;;7.40;4.53;;;;;;;-145.18;100.00;46562.72;5046072;28;20045;-78
2022/07/22 09:30:35;;;;;;;5.50;3.50;;;;;;;-145.18;100.00;46593.97;5050059;28;20035;-78
2022/07/22 09:33:02;;;;;;;6.40;3.77;;;;;;;-145.18;100.00;46615.47;5049717;28;20060;-78
2022/07/22 09:35:28;;;;;;;7.13;4.40;;;;;;;-145.18;100.00;46560.78;5046589;28;20040;-78
2022/07/22 09:37:59;;;;;;;5.10;3.70;;;;;;;-145.18;100.00;46566.63;5051840;28;20049;-77
2022/07/22 09:40:27;;;;;;;7.33;3.57;;;;;;;-145.18;100.00;46568.59;5050642;28;20090;-78
2022/07/22 09:42:56;;;;;;;6.33;3.63;;;;;;;-145.18;100.00;46574.44;5051323;28;20031;-78
2022/07/22 09:45:23;;;;;;;9.87;5.17;;;;;;;-145.18;100.00;46574.44;5050134;28;20025;-77
2022/07/22 09:47:50;;;;;;;8.57;5.60;;;;;;;-145.18;100.00;46564.69;5051582;28;20036;-78
2022/07/22 09:50:26;;;;;;;8.57;5.60;;;;;;;-145.18;100.00;46560.78;5050639;28;20465;-78
2022/07/22 09:52:55;;;;;;;6.60;5.53;;;;;;;-145.18;100.00;46554.91;5037016;28;20036;-78
2022/07/22 09:55:23;;;;;;;7.40;4.60;;;;;;;-145.18;100.00;46582.25;5030850;28;20072;-78
2022/07/22 09:57:51;;;;;;;8.67;5.23;;;;;;;-145.18;100.00;46599.84;5030342;28;20033;-78
2022/07/22 10:00:23;;;;;;;7.37;4.80;;;;;;;-145.18;100.00;46595.94;5030712;28;20037;-78
2022/07/22 10:02:51;;;;;;;8.50;4.60;;;;;;;-145.18;100.00;46619.38;5031084;28;20142;-77
2022/07/22 10:05:19;;;;;;;8.50;4.50;;;;;;;-145.18;100.00;46570.53;5030350;28;20030;-78
2022/07/22 10:07:46;;;;;;;8.57;4.63;;;;;;;-145.18;100.00;46713.13;5031329;28;20028;-78
2022/07/22 10:10:14;;;;;;;5.93;4.20;;;;;;;-145.18;100.00;46642.81;5040979;28;20124;-78
2022/07/22 10:12:41;;;;;;;8.33;4.90;;;;;;;-145.18;100.00;46703.38;5050979;28;20112;-77
2022/07/22 10:15:08;;;;;;;4.43;3.77;;;;;;;-145.18;100.00;47119.47;5051033;28;20401;-78
2022/07/22 10:17:37;;;;;;;8.67;4.70;;;;;;;-145.18;100.00;47135.09;5050613;28;20043;-78
2022/07/22 10:20:05;;;;;;;8.43;4.27;;;;;;;-145.18;100.00;47160.47;5048992;28;20029;-78
2022/07/22 10:22:50;;;;;;;7.53;4.00;;;;;;;-145.18;100.00;47205.41;5050766;28;20033;-78
2022/07/22 10:25:18;;;;;;;8.45;4.10;;;;;;;-145.18;100.00;46902.63;5049298;28;20049;-78
2022/07/22 10:28:03;;;;;;;6.83;4.13;;;;;;;-145.18;100.00;46646.72;5050727;28;20029;-78
2022/07/22 10:30:40;;;;;;;8.47;3.50;;;;;;;-145.18;100.00;46926.06;5043779;28;20087;-78
2022/07/22 10:33:12;;;;;;;8.03;3.23;;;;;;;-145.18;100.00;47135.09;5030343;28;20026;-79
2022/07/22 10:35:53;;;;;;;5.83;3.63;;;;;;;-145.18;100.00;46767.84;5030065;28;20489;-78
2022/07/22 10:38:21;;;;;;;7.33;3.20;;;;;;;-145.18;100.00;46627.19;5030755;28;20120;-78
2022/07/22 10:40:57;;;;;;;5.90;3.53;;;;;;;-145.18;100.00;46595.94;5029894;28;20075;-78
2022/07/22 10:43:27;;;;;;;5.50;3.30;;;;;;;-145.18;100.00;46625.22;5030357;28;20033;-78
2022/07/22 10:45:56;;;;;;;7.77;3.83;;;;;;;-145.18;100.00;46627.19;5030075;28;20482;-78
2022/07/22 10:48:44;;;;;;;8.40;4.17;;;;;;;-145.18;100.00;46623.28;5029874;28;20029;-78
2022/07/22 10:51:24;;;;;;;5.03;3.33;;;;;;;-145.18;100.00;46593.97;5030148;28;20052;-78
2022/07/22 10:53:53;;;;;;;4.73;3.67;;;;;;;-145.18;100.00;46621.31;5029869;28;20127;-78
2022/07/22 10:56:23;;;;;;;6.50;4.00;;;;;;;-145.18;100.00;46613.50;5030282;28;20033;-78
2022/07/22 10:59:08;;;;;;;7.57;5.07;;;;;;;-145.18;100.00;46584.22;5029487;28;20068;-78
2022/07/22 11:01:34;;;;;;;8.07;4.37;;;;;;;-145.18;100.00;46617.41;5037509;28;20116;-78
2022/07/22 11:04:21;;;;;;;11.03;4.63;;;;;;;-145.18;100.00;46588.13;5029871;28;20060;-78